You are listening to:
CYXU App/Dep (London Sector) - London, Ontario, Canada

CYXU 210000Z 00000KT 15SM FEW045 FEW090 12/09 A2994 RMK SC1AC1 SC TR AC TR SLP144

If stream does not start automatically press the play button